General Aviation Weather

Text Reports

Enter one or more of the following location identifiers separated by a space:

Zip Code, Four-Character ICAO or Three-Character IATA airport codes.

METAR - Aviation Routine Weather Report
KPVW - Plainview, Texas
Updated at 11:35 PM GMT on April 23, 2014 (6:35 PM CDT):
METAR KPVW 232335Z AUTO 23016G28KT 10SM CLR 30/M07 A2961 RMK AO2 T03031072
TAF - Terminal Area Forecast
KPVW - Plainview, Texas
Updated at 11:35 PM GMT on April 23, 2014 (6:35 PM CDT):
No TAF is currently available for this location.
Decoded:
No decoded TAF is available.
PIREP - Pilot Weather Report
KPVW - Plainview, Texas
Updated at 11:35 PM GMT on April 23, 2014 (6:35 PM CDT):
No PIREP is currently available for this location.
AIRMET - Airmens Meteorological Information
KPVW - Plainview, Texas
Updated at 11:35 PM GMT on April 23, 2014 (6:35 PM CDT):
No AIRMET is currently available for this location.
SIGMET - Significant Meteorological Information
KPVW - Plainview, Texas
Updated at 11:35 PM GMT on April 23, 2014 (6:35 PM CDT):
No SIGMET is currently available for this location.
NOTAM - Notice to Airmen
KPVW - Plainview, Texas
Updated at 11:35 PM GMT on April 23, 2014 (6:35 PM CDT):
No NOTAM is currently available for this location.
Forecast Area
KPVW - Plainview, Texas
Updated at 11:35 PM GMT on April 23, 2014 (6:35 PM CDT):
No NOTAM is currently available for this location.
Aviation Weather Maps